sensor_id;sensor_type;location;lat;lon;timestamp;P1;durP1;ratioP1;P2;durP2;ratioP2
69837;SDS011;57135;51.992;4.476;2023-03-29T00:00:13;5.88;;;5.85;;
69837;SDS011;57135;51.992;4.476;2023-03-29T00:02:39;5.64;;;5.63;;
69837;SDS011;57135;51.992;4.476;2023-03-29T00:05:06;5.79;;;5.75;;
69837;SDS011;57135;51.992;4.476;2023-03-29T00:07:32;6.13;;;6.11;;
69837;SDS011;57135;51.992;4.476;2023-03-29T00:09:58;5.88;;;5.87;;
69837;SDS011;57135;51.992;4.476;2023-03-29T00:12:25;5.77;;;5.77;;
69837;SDS011;57135;51.992;4.476;2023-03-29T00:14:51;6.13;;;6.11;;
69837;SDS011;57135;51.992;4.476;2023-03-29T00:17:16;6.32;;;6.30;;
69837;SDS011;57135;51.992;4.476;2023-03-29T00:19:43;6.55;;;6.52;;
69837;SDS011;57135;51.992;4.476;2023-03-29T00:22:09;6.42;;;6.40;;
69837;SDS011;57135;51.992;4.476;2023-03-29T00:24:35;6.62;;;6.59;;
69837;SDS011;57135;51.992;4.476;2023-03-29T00:27:00;7.14;;;7.11;;
69837;SDS011;57135;51.992;4.476;2023-03-29T00:29:26;6.84;;;6.82;;
69837;SDS011;57135;51.992;4.476;2023-03-29T00:31:51;6.48;;;6.45;;
69837;SDS011;57135;51.992;4.476;2023-03-29T00:34:24;6.56;;;6.52;;
69837;SDS011;57135;51.992;4.476;2023-03-29T00:36:56;6.54;;;6.50;;
69837;SDS011;57135;51.992;4.476;2023-03-29T00:39:22;6.75;;;6.67;;
69837;SDS011;57135;51.992;4.476;2023-03-29T00:41:49;6.79;;;6.78;;
69837;SDS011;57135;51.992;4.476;2023-03-29T00:47:19;6.73;;;6.72;;
69837;SDS011;57135;51.992;4.476;2023-03-29T00:49:48;7.11;;;7.09;;
69837;SDS011;57135;51.992;4.476;2023-03-29T00:52:16;6.79;;;6.75;;
69837;SDS011;57135;51.992;4.476;2023-03-29T00:54:45;6.91;;;6.89;;
69837;SDS011;57135;51.992;4.476;2023-03-29T00:57:15;7.18;;;7.16;;
69837;SDS011;57135;51.992;4.476;2023-03-29T00:59:43;6.86;;;6.85;;
69837;SDS011;57135;51.992;4.476;2023-03-29T01:02:11;6.71;;;6.71;;
69837;SDS011;57135;51.992;4.476;2023-03-29T01:04:49;6.88;;;6.88;;
69837;SDS011;57135;51.992;4.476;2023-03-29T01:07:21;6.55;;;6.51;;
69837;SDS011;57135;51.992;4.476;2023-03-29T01:09:57;6.75;;;6.70;;
69837;SDS011;57135;51.992;4.476;2023-03-29T01:12:30;6.78;;;6.73;;
69837;SDS011;57135;51.992;4.476;2023-03-29T01:15:13;6.85;;;6.82;;
69837;SDS011;57135;51.992;4.476;2023-03-29T01:17:43;6.42;;;6.38;;
69837;SDS011;57135;51.992;4.476;2023-03-29T01:30:43;6.97;;;6.93;;
69837;SDS011;57135;51.992;4.476;2023-03-29T01:33:18;6.42;;;6.37;;
69837;SDS011;57135;51.992;4.476;2023-03-29T01:38:17;6.81;;;6.79;;
69837;SDS011;57135;51.992;4.476;2023-03-29T01:40:51;6.71;;;6.69;;
69837;SDS011;57135;51.992;4.476;2023-03-29T01:43:20;6.63;;;6.59;;
69837;SDS011;57135;51.992;4.476;2023-03-29T01:45:54;6.72;;;6.66;;
69837;SDS011;57135;51.992;4.476;2023-03-29T01:50:53;7.05;;;7.01;;
69837;SDS011;57135;51.992;4.476;2023-03-29T01:56:12;6.66;;;6.65;;
69837;SDS011;57135;51.992;4.476;2023-03-29T01:58:45;6.83;;;6.81;;
69837;SDS011;57135;51.992;4.476;2023-03-29T02:01:15;6.55;;;6.53;;
69837;SDS011;57135;51.992;4.476;2023-03-29T02:03:45;6.84;;;6.82;;
69837;SDS011;57135;51.992;4.476;2023-03-29T02:06:15;6.86;;;6.85;;
69837;SDS011;57135;51.992;4.476;2023-03-29T02:08:44;7.07;;;7.03;;
69837;SDS011;57135;51.992;4.476;2023-03-29T02:11:11;7.07;;;7.03;;
69837;SDS011;57135;51.992;4.476;2023-03-29T02:13:37;7.34;;;7.27;;
69837;SDS011;57135;51.992;4.476;2023-03-29T02:16:06;7.25;;;7.19;;
69837;SDS011;57135;51.992;4.476;2023-03-29T02:18:33;6.87;;;6.85;;
69837;SDS011;57135;51.992;4.476;2023-03-29T02:21:00;7.09;;;7.05;;
69837;SDS011;57135;51.992;4.476;2023-03-29T02:23:30;7.31;;;7.30;;
69837;SDS011;57135;51.992;4.476;2023-03-29T02:25:59;6.96;;;6.92;;
69837;SDS011;57135;51.992;4.476;2023-03-29T02:28:27;7.25;;;7.23;;
69837;SDS011;57135;51.992;4.476;2023-03-29T02:33:20;7.19;;;7.17;;
69837;SDS011;57135;51.992;4.476;2023-03-29T02:35:55;7.29;;;7.29;;
69837;SDS011;57135;51.992;4.476;2023-03-29T02:38:27;7.36;;;7.34;;
69837;SDS011;57135;51.992;4.476;2023-03-29T02:40:55;7.65;;;7.56;;
69837;SDS011;57135;51.992;4.476;2023-03-29T02:43:23;7.86;;;7.84;;
69837;SDS011;57135;51.992;4.476;2023-03-29T02:45:50;7.47;;;7.42;;
69837;SDS011;57135;51.992;4.476;2023-03-29T02:48:18;7.50;;;7.41;;
69837;SDS011;57135;51.992;4.476;2023-03-29T02:50:46;7.49;;;7.42;;
69837;SDS011;57135;51.992;4.476;2023-03-29T02:53:17;7.82;;;7.77;;
69837;SDS011;57135;51.992;4.476;2023-03-29T02:55:47;7.77;;;7.68;;
69837;SDS011;57135;51.992;4.476;2023-03-29T02:58:13;7.75;;;7.68;;
69837;SDS011;57135;51.992;4.476;2023-03-29T03:00:41;7.98;;;7.92;;
69837;SDS011;57135;51.992;4.476;2023-03-29T03:03:10;7.92;;;7.87;;
69837;SDS011;57135;51.992;4.476;2023-03-29T03:05:36;7.86;;;7.77;;
69837;SDS011;57135;51.992;4.476;2023-03-29T03:08:03;7.81;;;7.77;;
69837;SDS011;57135;51.992;4.476;2023-03-29T03:10:31;7.91;;;7.86;;
69837;SDS011;57135;51.992;4.476;2023-03-29T03:12:59;7.90;;;7.89;;
69837;SDS011;57135;51.992;4.476;2023-03-29T03:15:25;8.00;;;7.99;;
69837;SDS011;57135;51.992;4.476;2023-03-29T03:17:51;8.28;;;8.22;;
69837;SDS011;57135;51.992;4.476;2023-03-29T03:20:17;8.13;;;8.06;;
69837;SDS011;57135;51.992;4.476;2023-03-29T03:22:46;7.92;;;7.87;;
69837;SDS011;57135;51.992;4.476;2023-03-29T03:25:13;7.74;;;7.71;;
69837;SDS011;57135;51.992;4.476;2023-03-29T03:27:41;8.17;;;8.14;;
69837;SDS011;57135;51.992;4.476;2023-03-29T03:30:07;8.11;;;8.05;;
69837;SDS011;57135;51.992;4.476;2023-03-29T03:32:33;8.21;;;8.16;;
69837;SDS011;57135;51.992;4.476;2023-03-29T03:34:59;7.98;;;7.96;;
69837;SDS011;57135;51.992;4.476;2023-03-29T03:37:26;8.03;;;7.99;;
69837;SDS011;57135;51.992;4.476;2023-03-29T03:39:52;8.16;;;8.13;;
69837;SDS011;57135;51.992;4.476;2023-03-29T03:42:18;8.07;;;8.02;;
69837;SDS011;57135;51.992;4.476;2023-03-29T03:44:43;8.28;;;8.20;;
69837;SDS011;57135;51.992;4.476;2023-03-29T03:47:09;8.30;;;8.21;;
69837;SDS011;57135;51.992;4.476;2023-03-29T03:49:36;8.36;;;8.26;;
69837;SDS011;57135;51.992;4.476;2023-03-29T03:52:01;8.40;;;8.32;;
69837;SDS011;57135;51.992;4.476;2023-03-29T03:54:27;8.21;;;8.15;;
69837;SDS011;57135;51.992;4.476;2023-03-29T03:56:52;8.46;;;8.36;;
69837;SDS011;57135;51.992;4.476;2023-03-29T03:59:18;8.40;;;8.28;;
69837;SDS011;57135;51.992;4.476;2023-03-29T04:01:43;8.59;;;8.51;;
69837;SDS011;57135;51.992;4.476;2023-03-29T04:04:10;8.75;;;8.71;;
69837;SDS011;57135;51.992;4.476;2023-03-29T04:06:35;9.31;;;9.24;;
69837;SDS011;57135;51.992;4.476;2023-03-29T04:09:01;8.93;;;8.90;;
69837;SDS011;57135;51.992;4.476;2023-03-29T04:11:27;9.12;;;9.08;;
69837;SDS011;57135;51.992;4.476;2023-03-29T04:13:53;9.43;;;9.26;;
69837;SDS011;57135;51.992;4.476;2023-03-29T04:16:19;9.04;;;8.96;;
69837;SDS011;57135;51.992;4.476;2023-03-29T04:18:45;9.33;;;9.26;;
69837;SDS011;57135;51.992;4.476;2023-03-29T04:21:11;9.63;;;9.55;;
69837;SDS011;57135;51.992;4.476;2023-03-29T04:23:36;9.59;;;9.55;;
69837;SDS011;57135;51.992;4.476;2023-03-29T04:26:02;9.72;;;9.70;;
69837;SDS011;57135;51.992;4.476;2023-03-29T04:28:28;10.21;;;10.18;;
69837;SDS011;57135;51.992;4.476;2023-03-29T04:30:53;10.26;;;10.23;;
69837;SDS011;57135;51.992;4.476;2023-03-29T04:33:19;10.31;;;10.28;;
69837;SDS011;57135;51.992;4.476;2023-03-29T04:35:45;10.42;;;10.42;;
69837;SDS011;57135;51.992;4.476;2023-03-29T04:38:10;10.13;;;10.11;;
69837;SDS011;57135;51.992;4.476;2023-03-29T04:40:36;10.15;;;10.13;;
69837;SDS011;57135;51.992;4.476;2023-03-29T04:43:02;10.57;;;10.47;;
69837;SDS011;57135;51.992;4.476;2023-03-29T04:45:28;10.07;;;10.03;;
69837;SDS011;57135;51.992;4.476;2023-03-29T04:47:57;9.97;;;9.93;;
69837;SDS011;57135;51.992;4.476;2023-03-29T04:50:26;9.63;;;9.58;;
69837;SDS011;57135;51.992;4.476;2023-03-29T04:52:52;9.69;;;9.68;;
69837;SDS011;57135;51.992;4.476;2023-03-29T04:55:17;9.61;;;9.60;;
69837;SDS011;57135;51.992;4.476;2023-03-29T04:57:43;10.21;;;10.15;;
69837;SDS011;57135;51.992;4.476;2023-03-29T05:00:09;10.21;;;10.13;;
69837;SDS011;57135;51.992;4.476;2023-03-29T05:02:42;10.13;;;10.06;;
69837;SDS011;57135;51.992;4.476;2023-03-29T05:05:08;9.70;;;9.65;;
69837;SDS011;57135;51.992;4.476;2023-03-29T05:07:35;10.06;;;10.05;;
69837;SDS011;57135;51.992;4.476;2023-03-29T05:10:01;9.90;;;9.85;;
69837;SDS011;57135;51.992;4.476;2023-03-29T05:12:27;10.28;;;10.11;;
69837;SDS011;57135;51.992;4.476;2023-03-29T05:14:52;10.07;;;10.03;;
69837;SDS011;57135;51.992;4.476;2023-03-29T05:17:18;9.85;;;9.77;;
69837;SDS011;57135;51.992;4.476;2023-03-29T05:19:44;10.06;;;9.97;;
69837;SDS011;57135;51.992;4.476;2023-03-29T05:22:10;9.79;;;9.77;;
69837;SDS011;57135;51.992;4.476;2023-03-29T05:24:35;9.97;;;9.96;;
69837;SDS011;57135;51.992;4.476;2023-03-29T05:27:01;10.18;;;10.14;;
69837;SDS011;57135;51.992;4.476;2023-03-29T05:29:27;10.36;;;10.30;;
69837;SDS011;57135;51.992;4.476;2023-03-29T05:31:53;10.60;;;10.54;;
69837;SDS011;57135;51.992;4.476;2023-03-29T05:34:18;10.46;;;10.33;;
69837;SDS011;57135;51.992;4.476;2023-03-29T05:36:44;10.57;;;10.50;;
69837;SDS011;57135;51.992;4.476;2023-03-29T05:39:10;10.49;;;10.44;;
69837;SDS011;57135;51.992;4.476;2023-03-29T05:41:35;11.03;;;10.98;;
69837;SDS011;57135;51.992;4.476;2023-03-29T05:44:01;10.80;;;10.73;;
69837;SDS011;57135;51.992;4.476;2023-03-29T05:46:27;10.98;;;10.86;;
69837;SDS011;57135;51.992;4.476;2023-03-29T05:48:52;10.62;;;10.54;;
69837;SDS011;57135;51.992;4.476;2023-03-29T05:51:18;10.24;;;10.20;;
69837;SDS011;57135;51.992;4.476;2023-03-29T05:53:48;10.49;;;10.38;;
69837;SDS011;57135;51.992;4.476;2023-03-29T05:56:14;10.76;;;10.70;;
69837;SDS011;57135;51.992;4.476;2023-03-29T05:58:40;10.59;;;10.52;;
69837;SDS011;57135;51.992;4.476;2023-03-29T06:01:10;10.53;;;10.46;;
69837;SDS011;57135;51.992;4.476;2023-03-29T06:03:37;10.66;;;10.62;;
69837;SDS011;57135;51.992;4.476;2023-03-29T06:06:02;10.95;;;10.91;;
69837;SDS011;57135;51.992;4.476;2023-03-29T06:08:28;11.48;;;11.35;;
69837;SDS011;57135;51.992;4.476;2023-03-29T06:11:02;11.26;;;11.17;;
69837;SDS011;57135;51.992;4.476;2023-03-29T06:13:30;11.36;;;11.33;;
69837;SDS011;57135;51.992;4.476;2023-03-29T06:15:58;11.28;;;11.17;;
69837;SDS011;57135;51.992;4.476;2023-03-29T06:18:23;11.21;;;11.09;;
69837;SDS011;57135;51.992;4.476;2023-03-29T06:20:50;11.48;;;11.47;;
69837;SDS011;57135;51.992;4.476;2023-03-29T06:23:17;11.39;;;11.32;;
69837;SDS011;57135;51.992;4.476;2023-03-29T06:25:44;11.64;;;11.50;;
69837;SDS011;57135;51.992;4.476;2023-03-29T06:28:10;11.80;;;11.60;;
69837;SDS011;57135;51.992;4.476;2023-03-29T06:30:36;11.87;;;11.81;;
69837;SDS011;57135;51.992;4.476;2023-03-29T06:33:03;11.81;;;11.74;;
69837;SDS011;57135;51.992;4.476;2023-03-29T06:35:32;11.51;;;11.45;;
69837;SDS011;57135;51.992;4.476;2023-03-29T06:37:59;11.60;;;11.51;;
69837;SDS011;57135;51.992;4.476;2023-03-29T06:40:25;11.63;;;11.53;;
69837;SDS011;57135;51.992;4.476;2023-03-29T06:42:52;11.66;;;11.57;;
69837;SDS011;57135;51.992;4.476;2023-03-29T06:45:22;11.70;;;11.63;;
69837;SDS011;57135;51.992;4.476;2023-03-29T06:47:48;12.10;;;12.01;;
69837;SDS011;57135;51.992;4.476;2023-03-29T06:50:14;12.71;;;12.62;;
69837;SDS011;57135;51.992;4.476;2023-03-29T06:52:41;12.62;;;12.45;;
69837;SDS011;57135;51.992;4.476;2023-03-29T06:55:07;13.04;;;12.92;;
69837;SDS011;57135;51.992;4.476;2023-03-29T06:57:35;13.84;;;13.68;;
69837;SDS011;57135;51.992;4.476;2023-03-29T07:00:01;14.26;;;14.14;;
69837;SDS011;57135;51.992;4.476;2023-03-29T07:02:34;13.71;;;13.61;;
69837;SDS011;57135;51.992;4.476;2023-03-29T07:04:59;14.43;;;14.21;;
69837;SDS011;57135;51.992;4.476;2023-03-29T07:07:26;14.04;;;13.87;;
69837;SDS011;57135;51.992;4.476;2023-03-29T07:09:57;14.05;;;13.85;;
69837;SDS011;57135;51.992;4.476;2023-03-29T07:12:22;14.29;;;14.14;;
69837;SDS011;57135;51.992;4.476;2023-03-29T07:14:48;14.56;;;14.33;;
69837;SDS011;57135;51.992;4.476;2023-03-29T07:17:14;14.40;;;14.22;;
69837;SDS011;57135;51.992;4.476;2023-03-29T07:19:40;13.90;;;13.76;;
69837;SDS011;57135;51.992;4.476;2023-03-29T07:22:06;13.88;;;13.62;;
69837;SDS011;57135;51.992;4.476;2023-03-29T07:24:32;14.07;;;13.87;;
69837;SDS011;57135;51.992;4.476;2023-03-29T07:26:57;15.63;;;15.16;;
69837;SDS011;57135;51.992;4.476;2023-03-29T07:29:23;15.62;;;15.29;;
69837;SDS011;57135;51.992;4.476;2023-03-29T07:31:48;14.93;;;14.75;;
69837;SDS011;57135;51.992;4.476;2023-03-29T07:34:14;14.84;;;14.79;;
69837;SDS011;57135;51.992;4.476;2023-03-29T07:36:41;15.35;;;15.14;;
69837;SDS011;57135;51.992;4.476;2023-03-29T07:39:10;15.34;;;15.14;;
69837;SDS011;57135;51.992;4.476;2023-03-29T07:41:37;16.49;;;16.20;;
69837;SDS011;57135;51.992;4.476;2023-03-29T07:44:03;17.35;;;16.99;;
69837;SDS011;57135;51.992;4.476;2023-03-29T07:46:34;17.05;;;16.72;;
69837;SDS011;57135;51.992;4.476;2023-03-29T07:49:00;17.37;;;17.09;;
69837;SDS011;57135;51.992;4.476;2023-03-29T07:51:27;18.75;;;18.22;;
69837;SDS011;57135;51.992;4.476;2023-03-29T07:53:52;18.61;;;18.18;;
69837;SDS011;57135;51.992;4.476;2023-03-29T07:56:18;18.58;;;18.16;;
69837;SDS011;57135;51.992;4.476;2023-03-29T07:58:43;18.94;;;18.41;;
69837;SDS011;57135;51.992;4.476;2023-03-29T08:01:10;19.35;;;18.70;;
69837;SDS011;57135;51.992;4.476;2023-03-29T08:03:39;19.85;;;19.19;;
69837;SDS011;57135;51.992;4.476;2023-03-29T08:06:06;19.98;;;19.41;;
69837;SDS011;57135;51.992;4.476;2023-03-29T08:08:32;20.41;;;19.75;;
69837;SDS011;57135;51.992;4.476;2023-03-29T08:10:57;20.31;;;19.66;;
69837;SDS011;57135;51.992;4.476;2023-03-29T08:13:23;21.11;;;20.45;;
69837;SDS011;57135;51.992;4.476;2023-03-29T08:15:48;21.89;;;20.97;;
69837;SDS011;57135;51.992;4.476;2023-03-29T08:18:14;22.69;;;21.89;;
69837;SDS011;57135;51.992;4.476;2023-03-29T08:20:39;22.67;;;21.95;;
69837;SDS011;57135;51.992;4.476;2023-03-29T08:23:05;23.23;;;22.44;;
69837;SDS011;57135;51.992;4.476;2023-03-29T08:25:31;23.54;;;22.85;;
69837;SDS011;57135;51.992;4.476;2023-03-29T08:27:56;24.25;;;23.61;;
69837;SDS011;57135;51.992;4.476;2023-03-29T08:30:22;24.73;;;23.85;;
69837;SDS011;57135;51.992;4.476;2023-03-29T08:32:48;24.98;;;24.10;;
69837;SDS011;57135;51.992;4.476;2023-03-29T08:35:13;24.90;;;24.18;;
69837;SDS011;57135;51.992;4.476;2023-03-29T08:37:39;25.20;;;24.47;;
69837;SDS011;57135;51.992;4.476;2023-03-29T08:40:05;25.78;;;24.64;;
69837;SDS011;57135;51.992;4.476;2023-03-29T08:42:46;25.87;;;24.88;;
69837;SDS011;57135;51.992;4.476;2023-03-29T08:45:37;24.20;;;23.29;;
69837;SDS011;57135;51.992;4.476;2023-03-29T08:48:22;25.53;;;24.72;;
69837;SDS011;57135;51.992;4.476;2023-03-29T08:50:53;24.67;;;24.20;;
69837;SDS011;57135;51.992;4.476;2023-03-29T08:53:29;24.41;;;23.92;;
69837;SDS011;57135;51.992;4.476;2023-03-29T08:55:59;24.73;;;24.09;;
69837;SDS011;57135;51.992;4.476;2023-03-29T08:58:31;26.52;;;25.82;;
69837;SDS011;57135;51.992;4.476;2023-03-29T09:00:59;27.19;;;26.72;;
69837;SDS011;57135;51.992;4.476;2023-03-29T09:03:30;26.82;;;26.49;;
69837;SDS011;57135;51.992;4.476;2023-03-29T09:06:21;26.94;;;26.50;;
69837;SDS011;57135;51.992;4.476;2023-03-29T09:08:48;27.88;;;27.54;;
69837;SDS011;57135;51.992;4.476;2023-03-29T09:17:06;28.39;;;28.02;;
69837;SDS011;57135;51.992;4.476;2023-03-29T09:22:23;28.47;;;28.15;;
69837;SDS011;57135;51.992;4.476;2023-03-29T09:30:27;30.65;;;30.26;;
69837;SDS011;57135;51.992;4.476;2023-03-29T09:33:02;30.88;;;30.35;;
69837;SDS011;57135;51.992;4.476;2023-03-29T09:38:19;32.12;;;31.79;;
69837;SDS011;57135;51.992;4.476;2023-03-29T09:43:46;26.26;;;26.09;;
69837;SDS011;57135;51.992;4.476;2023-03-29T09:46:18;26.34;;;26.02;;
69837;SDS011;57135;51.992;4.476;2023-03-29T09:48:49;27.33;;;27.01;;
69837;SDS011;57135;51.992;4.476;2023-03-29T09:51:16;28.10;;;27.62;;
69837;SDS011;57135;51.992;4.476;2023-03-29T09:53:44;28.56;;;28.13;;
69837;SDS011;57135;51.992;4.476;2023-03-29T09:56:11;29.08;;;28.85;;
69837;SDS011;57135;51.992;4.476;2023-03-29T09:58:39;28.28;;;27.98;;
69837;SDS011;57135;51.992;4.476;2023-03-29T10:01:07;28.57;;;28.37;;
69837;SDS011;57135;51.992;4.476;2023-03-29T10:03:39;28.84;;;28.64;;
69837;SDS011;57135;51.992;4.476;2023-03-29T10:06:05;30.24;;;29.81;;
69837;SDS011;57135;51.992;4.476;2023-03-29T10:08:39;30.82;;;30.49;;
69837;SDS011;57135;51.992;4.476;2023-03-29T10:11:12;34.28;;;33.56;;
69837;SDS011;57135;51.992;4.476;2023-03-29T10:13:53;39.03;;;38.19;;
69837;SDS011;57135;51.992;4.476;2023-03-29T10:16:22;38.85;;;37.80;;
69837;SDS011;57135;51.992;4.476;2023-03-29T10:18:49;37.86;;;37.04;;
69837;SDS011;57135;51.992;4.476;2023-03-29T10:21:16;39.67;;;38.73;;
69837;SDS011;57135;51.992;4.476;2023-03-29T10:23:47;41.25;;;40.51;;
69837;SDS011;57135;51.992;4.476;2023-03-29T10:26:26;39.22;;;38.59;;
69837;SDS011;57135;51.992;4.476;2023-03-29T10:28:54;40.93;;;39.93;;
69837;SDS011;57135;51.992;4.476;2023-03-29T10:31:24;39.26;;;38.62;;
69837;SDS011;57135;51.992;4.476;2023-03-29T10:33:54;39.50;;;38.89;;
69837;SDS011;57135;51.992;4.476;2023-03-29T10:36:22;37.70;;;37.33;;
69837;SDS011;57135;51.992;4.476;2023-03-29T10:38:50;34.42;;;34.23;;
69837;SDS011;57135;51.992;4.476;2023-03-29T10:41:17;28.60;;;28.29;;
69837;SDS011;57135;51.992;4.476;2023-03-29T10:43:46;25.32;;;25.08;;
69837;SDS011;57135;51.992;4.476;2023-03-29T10:49:03;24.50;;;24.08;;
69837;SDS011;57135;51.992;4.476;2023-03-29T10:51:34;24.90;;;24.76;;
69837;SDS011;57135;51.992;4.476;2023-03-29T10:54:00;26.62;;;26.29;;
69837;SDS011;57135;51.992;4.476;2023-03-29T10:56:38;30.18;;;29.79;;
69837;SDS011;57135;51.992;4.476;2023-03-29T10:59:23;28.77;;;28.17;;
69837;SDS011;57135;51.992;4.476;2023-03-29T11:04:44;27.87;;;27.51;;
69837;SDS011;57135;51.992;4.476;2023-03-29T11:07:17;29.00;;;28.51;;
69837;SDS011;57135;51.992;4.476;2023-03-29T11:10:00;31.68;;;31.06;;
69837;SDS011;57135;51.992;4.476;2023-03-29T11:15:35;30.34;;;29.97;;
69837;SDS011;57135;51.992;4.476;2023-03-29T11:21:09;23.76;;;23.63;;
69837;SDS011;57135;51.992;4.476;2023-03-29T11:24:02;24.84;;;24.40;;
69837;SDS011;57135;51.992;4.476;2023-03-29T11:29:50;32.34;;;31.71;;
69837;SDS011;57135;51.992;4.476;2023-03-29T11:32:43;31.12;;;30.35;;
69837;SDS011;57135;51.992;4.476;2023-03-29T11:35:36;30.02;;;29.59;;
69837;SDS011;57135;51.992;4.476;2023-03-29T11:40:54;26.69;;;26.22;;
69837;SDS011;57135;51.992;4.476;2023-03-29T11:43:43;25.83;;;25.54;;
69837;SDS011;57135;51.992;4.476;2023-03-29T11:49:24;26.69;;;26.08;;
69837;SDS011;57135;51.992;4.476;2023-03-29T11:51:39;25.41;;;25.21;;
69837;SDS011;57135;51.992;4.476;2023-03-29T11:54:15;26.69;;;26.42;;
69837;SDS011;57135;51.992;4.476;2023-03-29T11:56:46;27.79;;;27.26;;
69837;SDS011;57135;51.992;4.476;2023-03-29T11:59:27;28.14;;;27.72;;
69837;SDS011;57135;51.992;4.476;2023-03-29T12:02:01;29.73;;;29.33;;
69837;SDS011;57135;51.992;4.476;2023-03-29T12:04:36;29.92;;;29.58;;
69837;SDS011;57135;51.992;4.476;2023-03-29T12:09:53;31.08;;;30.60;;
69837;SDS011;57135;51.992;4.476;2023-03-29T12:12:55;32.24;;;31.58;;
69837;SDS011;57135;51.992;4.476;2023-03-29T12:15:28;25.18;;;24.70;;
69837;SDS011;57135;51.992;4.476;2023-03-29T12:18:01;23.93;;;23.68;;
69837;SDS011;57135;51.992;4.476;2023-03-29T12:20:37;22.85;;;22.54;;
69837;SDS011;57135;51.992;4.476;2023-03-29T12:23:05;22.91;;;22.57;;
69837;SDS011;57135;51.992;4.476;2023-03-29T12:31:27;22.34;;;22.02;;
69837;SDS011;57135;51.992;4.476;2023-03-29T12:39:17;21.66;;;21.42;;
69837;SDS011;57135;51.992;4.476;2023-03-29T12:41:44;19.62;;;19.33;;
69837;SDS011;57135;51.992;4.476;2023-03-29T12:44:16;19.28;;;19.10;;
69837;SDS011;57135;51.992;4.476;2023-03-29T12:46:49;18.40;;;18.38;;
69837;SDS011;57135;51.992;4.476;2023-03-29T12:49:24;16.58;;;16.54;;
69837;SDS011;57135;51.992;4.476;2023-03-29T12:51:53;16.84;;;16.83;;
69837;SDS011;57135;51.992;4.476;2023-03-29T12:54:23;16.24;;;16.22;;
69837;SDS011;57135;51.992;4.476;2023-03-29T12:59:34;16.27;;;16.27;;
69837;SDS011;57135;51.992;4.476;2023-03-29T13:09:51;14.05;;;14.04;;
69837;SDS011;57135;51.992;4.476;2023-03-29T13:15:20;14.11;;;14.11;;
69837;SDS011;57135;51.992;4.476;2023-03-29T13:21:03;13.90;;;13.87;;
69837;SDS011;57135;51.992;4.476;2023-03-29T13:23:44;14.60;;;14.59;;
69837;SDS011;57135;51.992;4.476;2023-03-29T13:26:34;15.89;;;15.87;;
69837;SDS011;57135;51.992;4.476;2023-03-29T13:31:50;21.94;;;21.48;;
69837;SDS011;57135;51.992;4.476;2023-03-29T13:37:12;22.24;;;21.75;;
69837;SDS011;57135;51.992;4.476;2023-03-29T13:39:50;20.46;;;20.09;;
69837;SDS011;57135;51.992;4.476;2023-03-29T13:44:45;18.26;;;18.05;;
69837;SDS011;57135;51.992;4.476;2023-03-29T13:50:02;17.23;;;17.21;;
69837;SDS011;57135;51.992;4.476;2023-03-29T13:52:36;17.54;;;17.54;;
69837;SDS011;57135;51.992;4.476;2023-03-29T14:00:49;18.76;;;18.76;;
69837;SDS011;57135;51.992;4.476;2023-03-29T14:03:23;18.81;;;18.81;;
69837;SDS011;57135;51.992;4.476;2023-03-29T14:06:00;19.48;;;19.48;;
69837;SDS011;57135;51.992;4.476;2023-03-29T14:08:30;20.09;;;20.09;;
69837;SDS011;57135;51.992;4.476;2023-03-29T14:11:02;20.02;;;20.02;;
69837;SDS011;57135;51.992;4.476;2023-03-29T14:13:30;19.29;;;19.29;;
69837;SDS011;57135;51.992;4.476;2023-03-29T14:15:58;19.50;;;19.50;;
69837;SDS011;57135;51.992;4.476;2023-03-29T14:18:32;19.12;;;19.10;;
69837;SDS011;57135;51.992;4.476;2023-03-29T14:21:01;19.08;;;19.02;;
69837;SDS011;57135;51.992;4.476;2023-03-29T14:23:28;17.06;;;17.05;;
69837;SDS011;57135;51.992;4.476;2023-03-29T14:26:13;16.78;;;16.78;;
69837;SDS011;57135;51.992;4.476;2023-03-29T14:28:50;15.36;;;15.36;;
69837;SDS011;57135;51.992;4.476;2023-03-29T14:31:18;14.49;;;14.49;;
69837;SDS011;57135;51.992;4.476;2023-03-29T14:33:46;14.32;;;14.32;;
69837;SDS011;57135;51.992;4.476;2023-03-29T14:36:16;14.46;;;14.46;;
69837;SDS011;57135;51.992;4.476;2023-03-29T14:38:43;14.07;;;14.07;;
69837;SDS011;57135;51.992;4.476;2023-03-29T14:41:15;14.19;;;14.19;;
69837;SDS011;57135;51.992;4.476;2023-03-29T14:43:41;14.55;;;14.55;;
69837;SDS011;57135;51.992;4.476;2023-03-29T14:46:08;14.86;;;14.86;;
69837;SDS011;57135;51.992;4.476;2023-03-29T14:48:36;15.12;;;15.12;;
69837;SDS011;57135;51.992;4.476;2023-03-29T14:51:03;15.47;;;15.47;;
69837;SDS011;57135;51.992;4.476;2023-03-29T14:53:29;16.01;;;16.01;;
69837;SDS011;57135;51.992;4.476;2023-03-29T14:56:01;16.47;;;16.47;;
69837;SDS011;57135;51.992;4.476;2023-03-29T14:58:28;16.28;;;16.25;;
69837;SDS011;57135;51.992;4.476;2023-03-29T15:00:56;16.19;;;16.19;;
69837;SDS011;57135;51.992;4.476;2023-03-29T15:03:22;15.15;;;15.15;;
69837;SDS011;57135;51.992;4.476;2023-03-29T15:05:51;15.11;;;15.11;;
69837;SDS011;57135;51.992;4.476;2023-03-29T15:08:31;15.01;;;15.01;;
69837;SDS011;57135;51.992;4.476;2023-03-29T15:11:00;14.54;;;14.54;;
69837;SDS011;57135;51.992;4.476;2023-03-29T15:13:27;14.57;;;14.56;;
69837;SDS011;57135;51.992;4.476;2023-03-29T15:15:57;13.66;;;13.66;;
69837;SDS011;57135;51.992;4.476;2023-03-29T15:18:27;13.10;;;13.10;;
69837;SDS011;57135;51.992;4.476;2023-03-29T15:20:57;12.69;;;12.66;;
69837;SDS011;57135;51.992;4.476;2023-03-29T15:23:24;12.86;;;12.81;;
69837;SDS011;57135;51.992;4.476;2023-03-29T15:25:57;12.72;;;12.72;;
69837;SDS011;57135;51.992;4.476;2023-03-29T15:28:31;12.14;;;12.14;;
69837;SDS011;57135;51.992;4.476;2023-03-29T15:31:15;12.72;;;12.70;;
69837;SDS011;57135;51.992;4.476;2023-03-29T15:33:43;12.47;;;12.47;;
69837;SDS011;57135;51.992;4.476;2023-03-29T15:36:10;12.52;;;12.52;;
69837;SDS011;57135;51.992;4.476;2023-03-29T15:38:38;11.87;;;11.87;;
69837;SDS011;57135;51.992;4.476;2023-03-29T15:41:05;11.85;;;11.85;;
69837;SDS011;57135;51.992;4.476;2023-03-29T15:43:32;11.71;;;11.71;;
69837;SDS011;57135;51.992;4.476;2023-03-29T15:45:58;11.25;;;11.25;;
69837;SDS011;57135;51.992;4.476;2023-03-29T15:48:25;11.09;;;11.09;;
69837;SDS011;57135;51.992;4.476;2023-03-29T15:50:52;10.52;;;10.52;;
69837;SDS011;57135;51.992;4.476;2023-03-29T15:53:17;10.80;;;10.80;;
69837;SDS011;57135;51.992;4.476;2023-03-29T15:55:49;9.88;;;9.88;;
69837;SDS011;57135;51.992;4.476;2023-03-29T15:58:18;10.36;;;10.36;;
69837;SDS011;57135;51.992;4.476;2023-03-29T16:00:48;9.94;;;9.94;;
69837;SDS011;57135;51.992;4.476;2023-03-29T16:03:18;10.22;;;10.22;;
69837;SDS011;57135;51.992;4.476;2023-03-29T16:05:44;10.91;;;10.91;;
69837;SDS011;57135;51.992;4.476;2023-03-29T16:08:10;10.66;;;10.66;;
69837;SDS011;57135;51.992;4.476;2023-03-29T16:10:36;10.74;;;10.74;;
69837;SDS011;57135;51.992;4.476;2023-03-29T16:13:02;10.50;;;10.50;;
69837;SDS011;57135;51.992;4.476;2023-03-29T16:15:27;10.23;;;10.23;;
69837;SDS011;57135;51.992;4.476;2023-03-29T16:17:53;10.34;;;10.34;;
69837;SDS011;57135;51.992;4.476;2023-03-29T16:20:18;9.98;;;9.98;;
69837;SDS011;57135;51.992;4.476;2023-03-29T16:22:47;9.01;;;9.01;;
69837;SDS011;57135;51.992;4.476;2023-03-29T16:25:15;8.57;;;8.57;;
69837;SDS011;57135;51.992;4.476;2023-03-29T16:27:43;8.06;;;8.06;;
69837;SDS011;57135;51.992;4.476;2023-03-29T16:30:08;8.42;;;8.42;;
69837;SDS011;57135;51.992;4.476;2023-03-29T16:32:35;7.83;;;7.83;;